Latest Weather Observations for Sydney - Observatory Hill

IDN60901

Issued at 12:31 pm EST Thursday 18 July 2019 (issued every 10 minutes, with the page automatically refreshed every 10 minutes)

About weather observations | Map of Sydney area stations | Latest observations for Sydney area | Other Formats
Station Details ID: 066062 Name: SYDNEY (OBSERVATORY HILL) Lat: -33.86 Lon: 151.21 Height: 39.0 m
Data from the previous 72 hours. | See also: Recent months at Sydney - Observatory Hill

* Apparent temperature (App Temp) for Sydney - Observatory Hill is calculated using temperature observations collected at Sydney - Observatory Hill and wind observations collected at Fort Denison, as wind observations are not currently provided for Sydney - Observatory Hill.

Date/Time
EST
Temp
°C
App
Temp
°C
Dew
Point
°C
Rel
Hum
%
Delta-T
°C
Wind Press
QNH
hPa
Press
MSL
hPa
Rain since
9am
mm
Dir  Spd
km/h
Gust
km/h
Spd
kts
Gust
kts
18/12:30pm 18.1 12.5 1.2 32 7.5 WNW 20 - 11 - 1014.7 1014.7 0.0
18/12:00pm 16.7 11.4 2.0 37 6.6 WNW 19 - 10 - 1015.0 1015.1 0.0
18/11:30am 16.3 11.0 2.0 38 6.4 WNW 19 - 10 - 1015.4 1015.5 0.0
18/11:00am 15.9 10.3 3.4 43 5.7 WNW 22 - 12 - 1015.6 1015.7 0.0
18/10:30am 15.2 8.3 2.7 43 5.6 W 28 - 15 - 1016.0 1016.1 0.0
18/10:00am 14.8 10.5 3.0 45 5.3 WNW 15 - 8 - 1016.0 1016.1 0.0
18/09:30am 13.7 9.5 4.0 52 4.4 WNW 15 - 8 - 1015.9 1016.0 0.0
18/09:00am 12.7 8.8 3.6 54 4.1 WNW 13 - 7 - 1015.7 1015.8 0.0
18/08:30am 11.7 9.2 4.0 59 3.5 W 6 - 3 - 1015.4 1015.5 0.0
18/08:00am 11.2 7.7 3.7 60 3.3 WNW 11 - 6 - 1015.2 1015.3 0.0
18/07:30am 11.1 7.1 2.9 57 3.6 WNW 13 - 7 - 1014.8 1014.8 0.0
18/07:00am 10.2 6.3 3.3 62 3.0 W 13 - 7 - 1014.6 1014.6 0.0
18/06:30am 10.5 5.4 3.1 60 3.2 WNW 19 - 10 - 1013.8 1013.8 0.0
18/06:00am 11.0 5.8 2.6 56 3.6 WNW 19 - 10 - 1013.8 1013.8 0.0
18/05:30am 12.1 5.6 2.8 53 4.1 W 26 - 14 - 1013.7 1013.7 0.0
18/05:00am 11.2 5.4 2.2 54 3.9 W 22 - 12 - 1013.6 1013.6 0.0
18/04:30am 11.2 5.8 2.5 55 3.8 W 20 - 11 - 1013.2 1013.2 0.0
18/04:00am 11.1 7.4 2.4 55 3.7 WNW 11 - 6 - 1013.1 1013.1 0.0
18/03:30am 11.6 5.8 2.4 53 4.0 W 22 - 12 - 1013.1 1013.1 0.0
18/03:00am 11.7 5.1 1.9 51 4.2 W 26 - 14 - 1013.2 1013.2 0.0
18/02:30am 11.6 6.7 1.8 51 4.2 W 17 - 9 - 1013.5 1013.5 0.0
18/02:00am 11.0 6.0 1.3 51 4.1 W 17 - 9 - 1013.4 1013.4 0.0
18/01:30am 11.2 7.3 0.9 49 4.3 WNW 11 - 6 - 1013.2 1013.2 0.0
18/01:00am 11.8 7.1 0.9 47 4.6 WNW 15 - 8 - 1013.1 1013.1 0.0
18/12:30am 11.9 6.7 0.4 45 4.8 WNW 17 - 9 - 1013.4 1013.4 0.0
18/12:00am 12.2 6.6 0.0 43 5.0 NW 19 - 10 - 1013.8 1013.8 0.0
 
Date/Time
EST
Temp
°C
App
Temp
°C
Dew
Point
°C
Rel
Hum
%
Delta-T
°C
Wind Press
QNH
hPa
Press
MSL
hPa
Rain since
9am
mm
Dir  Spd
km/h
Gust
km/h
Spd
kts
Gust
kts
17/11:30pm 12.4 7.9 -0.1 42 5.1 W 13 - 7 - 1014.2 1014.2 0.0
17/11:00pm 12.8 8.3 -0.1 41 5.3 WNW 13 - 7 - 1014.3 1014.3 0.0
17/10:30pm 13.0 7.2 0.1 41 5.4 WNW 20 - 11 - 1014.3 1014.3 0.0
17/10:00pm 13.1 6.2 0.2 41 5.4 W 26 - 14 - 1014.3 1014.3 0.0
17/09:30pm 13.2 6.2 -0.4 39 5.6 W 26 - 14 - 1014.8 1014.8 0.0
17/09:00pm 13.5 5.3 -0.9 37 5.9 WSW 32 - 17 - 1015.3 1015.4 0.0
17/08:30pm 13.8 7.0 0.5 40 5.6 WSW 26 - 14 - 1014.9 1015.0 0.0
17/08:00pm 14.0 6.8 1.0 41 5.6 W 28 - 15 - 1014.3 1014.3 0.0
17/07:30pm 14.4 6.9 1.0 40 5.8 W 30 - 16 - 1014.1 1014.1 0.0
17/07:00pm 14.4 9.0 1.3 41 5.7 W 19 - 10 - 1013.8 1013.8 0.0
17/06:30pm 14.7 9.1 0.9 39 5.9 W 20 - 11 - 1013.2 1013.2 0.0
17/06:00pm 15.6 9.9 0.6 36 6.5 WNW 20 - 11 - 1013.0 1013.0 0.0
17/05:30pm 16.3 9.8 0.0 33 7.0 WNW 24 - 13 - 1012.9 1012.9 0.0
17/05:00pm 17.2 11.5 0.8 33 7.2 WNW 20 - 11 - 1012.8 1012.8 0.0
17/04:30pm 17.7 14.0 4.3 41 6.3 NW 13 - 7 - 1012.6 1012.6 0.0
17/04:00pm 18.8 14.8 3.0 35 7.4 WNW 13 - 7 - 1012.6 1012.6 0.0
17/03:30pm 19.3 15.8 3.5 35 7.5 WNW 11 - 6 - 1013.1 1013.1 0.0
17/03:00pm 19.5 15.0 4.0 36 7.4 NW 17 - 9 - 1013.4 1013.4 0.0
17/02:30pm 19.1 14.0 3.3 35 7.4 NW 19 - 10 - 1013.6 1013.6 0.0
17/02:00pm 19.0 14.8 3.6 36 7.3 WNW 15 - 8 - 1014.1 1014.1 0.0
17/01:30pm 18.8 14.1 3.4 36 7.2 NW 17 - 9 - 1014.4 1014.4 0.0
17/01:00pm 17.9 13.3 3.8 39 6.6 WNW 17 - 9 - 1014.8 1014.8 0.0
17/12:30pm 17.0 12.8 3.7 41 6.2 NW 15 - 8 - 1015.5 1015.6 0.0
17/12:00pm 15.7 10.7 3.8 45 5.5 WNW 19 - 10 - 1016.2 1016.3 0.0
17/11:30am 15.0 10.4 3.5 46 5.2 WNW 17 - 9 - 1017.1 1017.2 0.0
17/11:00am 14.4 9.2 3.8 49 4.8 WNW 20 - 11 - 1017.8 1017.9 0.0
17/10:30am 13.8 7.6 4.1 52 4.4 W 26 - 14 - 1018.1 1018.2 0.0
17/10:00am 13.4 7.1 4.0 53 4.3 WNW 26 - 14 - 1018.5 1018.6 0.0
17/09:30am 12.6 7.1 4.1 56 3.8 W 22 - 12 - 1018.6 1018.7 0.0
17/09:00am 12.0 6.5 4.0 58 3.6 W 22 - 12 - 1018.8 1018.9 0.0
17/08:30am 11.5 6.7 4.5 62 3.2 WNW 19 - 10 - 1018.8 1018.9 0.0
17/08:00am 10.9 5.9 4.8 66 2.8 W 20 - 11 - 1018.9 1019.0 0.0
17/07:30am 10.2 5.4 4.6 68 2.5 W 19 - 10 - 1018.9 1019.0 0.0
17/07:00am 9.7 4.8 4.3 69 2.4 WNW 19 - 10 - 1018.8 1018.9 0.0
17/06:30am 9.7 5.1 3.9 67 2.5 WNW 17 - 9 - 1018.6 1018.7 0.0
17/06:00am 10.0 5.8 3.7 65 2.8 W 15 - 8 - 1018.3 1018.4 0.0
17/05:30am 10.6 6.0 3.9 63 3.0 W 17 - 9 - 1018.1 1018.2 0.0
17/05:00am 10.6 5.7 3.9 63 3.0 W 19 - 10 - 1018.0 1018.1 0.0
17/04:30am 10.6 5.5 3.9 63 3.0 W 20 - 11 - 1018.0 1018.1 0.0
17/04:00am 10.8 5.3 3.8 62 3.1 W 22 - 12 - 1018.1 1018.2 0.0
17/03:30am 10.9 5.7 3.7 61 3.2 W 20 - 11 - 1018.3 1018.4 0.0
17/03:00am 11.0 5.8 3.8 61 3.2 W 20 - 11 - 1018.3 1018.4 0.0
17/02:30am 10.6 5.9 3.4 61 3.2 W 17 - 9 - 1018.6 1018.7 0.0
17/02:00am 10.7 5.7 3.5 61 3.2 W 19 - 10 - 1018.7 1018.8 0.0
17/01:30am 11.2 7.4 3.7 60 3.3 WNW 13 - 7 - 1018.9 1019.0 0.0
17/01:00am 11.7 7.1 3.7 58 3.6 W 17 - 9 - 1019.0 1019.1 0.0
17/12:30am 12.2 6.6 3.7 56 3.8 W 22 - 12 - 1019.1 1019.2 0.0
17/12:00am 11.8 6.3 4.1 59 3.5 W 22 - 12 - 1019.5 1019.6 0.0
 
Date/Time
EST
Temp
°C
App
Temp
°C
Dew
Point
°C
Rel
Hum
%
Delta-T
°C
Wind Press
QNH
hPa
Press
MSL
hPa
Rain since
9am
mm
Dir  Spd
km/h
Gust
km/h
Spd
kts
Gust
kts
16/11:30pm 12.0 7.0 3.8 57 3.7 W 19 - 10 - 1019.5 1019.6 0.0
16/11:00pm 12.3 7.1 3.5 55 3.9 W 20 - 11 - 1019.5 1019.6 0.0
16/10:30pm 12.3 7.1 3.5 55 3.9 W 20 - 11 - 1019.6 1019.7 0.0
16/10:00pm 12.5 7.2 3.2 53 4.1 W 20 - 11 - 1019.4 1019.5 0.0
16/09:30pm 13.0 7.3 3.1 51 4.4 W 22 - 12 - 1019.3 1019.4 0.0
16/09:00pm 13.2 7.5 2.7 49 4.6 W 22 - 12 - 1019.4 1019.5 0.0
16/08:30pm 13.3 7.5 2.2 47 4.8 W 22 - 12 - 1019.5 1019.6 0.0
16/08:00pm 13.7 7.5 2.0 45 5.1 W 24 - 13 - 1019.4 1019.5 0.0
16/07:30pm 14.2 8.7 1.8 43 5.4 W 20 - 11 - 1019.3 1019.4 0.0
16/07:00pm 14.7 7.6 1.6 41 5.7 W 28 - 15 - 1018.9 1019.0 0.0
16/06:30pm 15.3 9.8 1.8 40 6.0 WSW 20 - 11 - 1018.4 1018.5 0.0
16/06:00pm 15.9 9.9 0.9 36 6.5 WSW 22 - 12 - 1017.7 1017.8 0.0
16/05:30pm 16.8 11.2 1.3 35 6.8 WSW 20 - 11 - 1017.4 1017.5 0.0
16/05:00pm 17.5 11.9 1.5 34 7.1 WSW 20 - 11 - 1017.1 1017.2 0.0
16/04:30pm 18.1 12.6 0.7 31 7.7 WSW 19 - 10 - 1016.8 1016.9 0.0
16/04:00pm 19.3 13.6 0.8 29 8.3 W 20 - 11 - 1016.4 1016.5 0.0
16/03:30pm 20.7 15.2 0.5 26 9.1 WSW 19 - 10 - 1015.9 1016.0 0.0
16/03:00pm 21.1 14.6 0.3 25 9.3 WSW 24 - 13 - 1015.6 1015.7 0.0
16/02:30pm 21.4 15.9 0.6 25 9.4 W 19 - 10 - 1015.6 1015.7 0.0
16/02:00pm 21.2 16.1 1.0 26 9.2 W 17 - 9 - 1015.6 1015.7 0.0
16/01:30pm 20.1 17.4 3.8 34 7.8 WNW 7 - 4 - 1015.8 1015.9 0.0
16/01:00pm 19.0 15.1 3.2 35 7.4 NW 13 - 7 - 1016.4 1016.5 0.0
16/12:30pm 18.4 13.9 4.2 39 6.7 WNW 17 - 9 - 1016.7 1016.8 0.0
16/12:00pm 16.5 11.4 4.2 44 5.7 WNW 20 - 11 - 1017.3 1017.4 0.0
16/11:30am 16.0 12.2 3.8 44 5.6 WNW 13 - 7 - 1017.9 1018.0 0.0
16/11:00am 15.1 10.0 3.9 47 5.1 WNW 20 - 11 - 1018.3 1018.4 0.0
16/10:30am 14.1 8.6 3.8 50 4.7 WNW 22 - 12 - 1018.6 1018.7 0.0
16/10:00am 13.4 7.9 3.8 52 4.3 W 22 - 12 - 1018.7 1018.8 0.0
16/09:30am 12.3 6.3 3.5 55 3.9 W 24 - 13 - 1018.7 1018.8 0.0
16/09:00am 11.5 5.9 3.3 57 3.6 W 22 - 12 - 1018.7 1018.8 0.0
16/08:30am 11.1 5.5 3.2 58 3.5 W 22 - 12 - 1018.5 1018.6 0.0
16/08:00am 10.4 4.3 3.0 60 3.2 W 24 - 13 - 1018.4 1018.5 0.0
16/07:30am 9.7 4.6 2.8 62 3.0 W 19 - 10 - 1018.2 1018.3 0.0
16/07:00am 9.0 3.2 2.3 63 2.8 W 22 - 12 - 1018.1 1018.2 0.0
16/06:30am 9.2 3.4 2.3 62 2.9 W 22 - 12 - 1017.7 1017.8 0.0
16/06:00am 9.6 4.4 2.2 60 3.1 W 19 - 10 - 1017.1 1017.2 0.0
16/05:30am 9.5 4.2 2.1 60 3.1 WNW 19 - 10 - 1016.6 1016.7 0.0
16/05:00am 9.7 4.5 2.3 60 3.1 W 19 - 10 - 1016.4 1016.5 0.0
16/04:30am 9.9 4.4 2.0 58 3.3 W 20 - 11 - 1016.5 1016.6 0.0
16/04:00am 9.8 4.6 2.2 59 3.2 W 19 - 10 - 1016.7 1016.8 0.0
16/03:30am 9.4 4.6 2.5 62 2.9 WNW 17 - 9 - 1016.8 1016.9 0.0
16/03:00am 9.8 4.3 1.9 58 3.3 W 20 - 11 - 1017.0 1017.1 0.0
16/02:30am 10.4 4.6 2.3 57 3.5 WNW 22 - 12 - 1017.2 1017.3 0.0
16/02:00am 10.5 5.2 1.9 55 3.6 W 19 - 10 - 1017.3 1017.4 0.0
16/01:30am 10.5 5.0 1.6 54 3.7 W 20 - 11 - 1017.5 1017.6 0.0
16/01:00am 10.3 5.0 1.7 55 3.6 W 19 - 10 - 1017.6 1017.7 0.0
16/12:30am 10.3 5.7 1.4 54 3.7 W 15 - 8 - 1017.9 1018.0 0.0
16/12:00am 11.0 5.4 1.3 51 4.1 W 20 - 11 - 1017.9 1018.0 0.0
 
Date/Time
EST
Temp
°C
App
Temp
°C
Dew
Point
°C
Rel
Hum
%
Delta-T
°C
Wind Press
QNH
hPa
Press
MSL
hPa
Rain since
9am
mm
Dir  Spd
km/h
Gust
km/h
Spd
kts
Gust
kts
15/11:30pm 11.0 6.0 1.5 52 4.0 WNW 17 - 9 - 1018.0 1018.1 0.0
15/11:00pm 10.7 6.2 2.0 55 3.7 WNW 15 - 8 - 1018.1 1018.2 0.0
15/10:30pm 10.7 6.9 1.8 54 3.8 WNW 11 - 6 - 1018.3 1018.4 0.0
15/10:00pm 11.0 7.6 1.8 53 3.9 WNW 9 - 5 - 1018.5 1018.6 0.0
15/09:30pm 11.5 7.0 2.0 52 4.1 WNW 15 - 8 - 1018.8 1018.9 0.0
15/09:00pm 12.2 7.5 1.2 47 4.6 WNW 15 - 8 - 1018.8 1018.9 0.0
15/08:30pm 12.7 6.7 1.1 45 4.9 W 22 - 12 - 1018.9 1019.0 0.0
15/08:00pm 13.2 7.6 0.9 43 5.2 WSW 20 - 11 - 1018.6 1018.7 0.0
15/07:30pm 13.8 8.1 0.5 40 5.6 W 20 - 11 - 1018.8 1018.9 0.0
15/07:00pm 14.1 8.6 0.4 39 5.8 W 19 - 10 - 1018.6 1018.7 0.0
15/06:30pm 14.3 8.7 -0.2 37 6.1 WSW 19 - 10 - 1018.1 1018.2 0.0
15/06:00pm 14.6 9.3 -0.7 35 6.3 W 17 - 9 - 1018.1 1018.2 0.0
15/05:30pm 14.9 9.6 -0.8 34 6.5 W 17 - 9 - 1017.5 1017.6 0.0
15/05:00pm 15.4 9.4 -1.2 32 6.9 W 20 - 11 - 1017.1 1017.2 0.0
15/04:30pm 15.9 9.2 -0.8 32 7.0 W 24 - 13 - 1016.8 1016.9 0.0
15/04:00pm 16.6 9.5 -1.0 30 7.4 W 26 - 14 - 1016.6 1016.7 0.0
15/03:30pm 17.6 10.4 -2.1 26 8.2 W 26 - 14 - 1016.6 1016.7 0.0
15/03:00pm 17.9 12.0 -0.8 28 8.0 WSW 20 - 11 - 1016.3 1016.4 0.0
15/02:30pm 18.3 12.5 -1.5 26 8.4 SW 19 - 10 - 1016.2 1016.3 0.0
15/02:00pm 18.4 12.5 -2.5 24 8.6 SW 19 - 10 - 1016.1 1016.2 0.0
15/01:30pm 18.3 11.7 -3.2 23 8.8 SSW 22 - 12 - 1016.1 1016.2 0.0
15/01:00pm 17.9 11.6 -1.3 27 8.1 W 22 - 12 - 1016.1 1016.2 0.0

Latest Capital City Observations: Canberra | Sydney | Melbourne | Brisbane | Adelaide | Perth | Hobart | Darwin

Other formats

Comma delimited format used in spreadsheet applications
http://www.bom.gov.au/fwo/IDN60901/IDN60901.94768.axf

JavaScript Object Notation format (JSON) in row-major order
http://www.bom.gov.au/fwo/IDN60901/IDN60901.94768.json

Data quality

Most of these data are generated automatically and are frequently updated. Quality checks on data are not normally performed. It is possible for incorrect values to appear. Refer to information at About Latest Weather Observations and please check the disclaimer before using these data.